createdAt,value
2023-04-03T00:00:46.515Z,23.33
2023-04-03T00:03:14.269Z,23.31
2023-04-03T00:05:42.305Z,23.29
2023-04-03T00:08:10.597Z,23.29
2023-04-03T00:10:38.932Z,23.29
2023-04-03T00:13:06.945Z,23.28
2023-04-03T00:15:34.453Z,23.27
2023-04-03T00:18:02.589Z,23.28
2023-04-03T00:20:30.066Z,23.29
2023-04-03T00:22:58.308Z,23.28
2023-04-03T00:25:26.070Z,23.28
2023-04-03T00:27:53.546Z,23.28
2023-04-03T00:30:22.081Z,23.27
2023-04-03T00:32:50.747Z,23.24
2023-04-03T00:35:18.489Z,23.23
2023-04-03T00:37:46.018Z,23.22
2023-04-03T00:40:14.470Z,23.22
2023-04-03T00:42:42.285Z,23.22
2023-04-03T00:45:12.654Z,23.20
2023-04-03T00:47:41.157Z,23.19
2023-04-03T00:50:09.016Z,23.19
2023-04-03T00:52:36.572Z,23.17
2023-04-03T00:55:06.949Z,23.19
2023-04-03T00:57:34.339Z,23.17
2023-04-03T01:00:10.412Z,23.28
2023-04-03T01:02:38.393Z,23.21
2023-04-03T01:05:07.238Z,23.19
2023-04-03T01:07:36.222Z,23.18
2023-04-03T01:10:15.172Z,23.16
2023-04-03T01:12:46.782Z,23.16
2023-04-03T01:15:24.030Z,23.14
2023-04-03T01:17:52.936Z,23.14
2023-04-03T01:20:33.196Z,23.12
2023-04-03T01:23:10.067Z,23.15
2023-04-03T01:25:43.088Z,23.14
2023-04-03T01:28:13.206Z,23.11
2023-04-03T01:30:51.337Z,23.11
2023-04-03T01:33:19.292Z,23.13
2023-04-03T01:35:48.042Z,23.12
2023-04-03T01:38:16.041Z,23.11
2023-04-03T01:40:43.572Z,23.11
2023-04-03T01:43:11.667Z,23.11
2023-04-03T01:45:39.142Z,23.10
2023-04-03T01:48:06.762Z,23.09
2023-04-03T01:50:34.815Z,23.09
2023-04-03T01:53:02.375Z,23.09
2023-04-03T01:55:29.820Z,23.09
2023-04-03T01:57:57.684Z,23.08
2023-04-03T02:00:25.201Z,23.11
2023-04-03T02:02:53.115Z,23.09
2023-04-03T02:05:20.560Z,23.09
2023-04-03T02:07:48.023Z,23.09
2023-04-03T02:10:16.130Z,23.08
2023-04-03T02:12:43.656Z,23.08
2023-04-03T02:15:11.213Z,23.08
2023-04-03T02:17:38.990Z,23.08
2023-04-03T02:20:07.002Z,23.07
2023-04-03T02:22:34.528Z,23.06
2023-04-03T02:25:05.880Z,23.04
2023-04-03T02:27:33.318Z,23.04
2023-04-03T02:30:00.805Z,23.04
2023-04-03T02:32:28.835Z,23.04
2023-04-03T02:34:57.395Z,23.04
2023-04-03T02:37:24.930Z,23.03
2023-04-03T02:39:53.028Z,23.04
2023-04-03T02:42:20.871Z,23.03
2023-04-03T02:44:48.405Z,23.02
2023-04-03T02:47:16.137Z,23.03
2023-04-03T02:49:46.043Z,23.01
2023-04-03T02:52:14.326Z,23.01
2023-04-03T02:54:42.303Z,23.02
2023-04-03T02:57:10.247Z,23.02
2023-04-03T02:59:38.217Z,23.02
2023-04-03T03:02:06.236Z,23.02
2023-04-03T03:04:33.688Z,23.01
2023-04-03T03:07:01.316Z,23.01
2023-04-03T03:09:30.481Z,23.01
2023-04-03T03:11:58.124Z,23.00
2023-04-03T03:14:25.566Z,23.00
2023-04-03T03:16:53.313Z,22.99
2023-04-03T03:19:20.743Z,23.00
2023-04-03T03:21:48.328Z,22.99
2023-04-03T03:24:16.930Z,22.99
2023-04-03T03:26:44.359Z,22.98
2023-04-03T03:29:12.601Z,22.99
2023-04-03T03:31:40.847Z,22.98
2023-04-03T03:34:08.472Z,22.99
2023-04-03T03:36:36.397Z,22.99
2023-04-03T03:39:04.528Z,22.99
2023-04-03T03:41:32.151Z,22.98
2023-04-03T03:43:59.786Z,22.99
2023-04-03T03:46:28.701Z,23.00
2023-04-03T03:48:56.267Z,22.99
2023-04-03T03:51:24.111Z,22.97
2023-04-03T03:53:52.434Z,22.98
2023-04-03T03:56:20.099Z,22.97
2023-04-03T03:58:47.698Z,22.97
2023-04-03T04:01:16.216Z,22.96
2023-04-03T04:03:44.402Z,22.97
2023-04-03T04:06:12.344Z,22.96
2023-04-03T04:08:39.797Z,22.96
2023-04-03T04:11:07.919Z,22.95
2023-04-03T04:13:35.411Z,22.97
2023-04-03T04:16:03.089Z,22.94
2023-04-03T04:18:31.232Z,22.92
2023-04-03T04:20:58.941Z,22.92
2023-04-03T04:23:26.467Z,22.94
2023-04-03T04:25:54.500Z,22.93
2023-04-03T04:28:22.682Z,22.92
2023-04-03T04:30:51.260Z,22.91
2023-04-03T04:33:19.351Z,22.91
2023-04-03T04:35:48.671Z,22.92
2023-04-03T04:38:17.299Z,22.91
2023-04-03T04:40:45.071Z,22.92
2023-04-03T04:43:15.408Z,22.91
2023-04-03T04:45:42.900Z,22.91
2023-04-03T04:48:11.181Z,22.98
2023-04-03T04:50:39.138Z,22.94
2023-04-03T04:53:25.437Z,22.90
2023-04-03T04:55:53.776Z,22.89
2023-04-03T04:58:21.661Z,22.89
2023-04-03T05:00:49.241Z,22.89
2023-04-03T05:03:17.418Z,22.89
2023-04-03T05:05:46.140Z,22.88
2023-04-03T05:08:14.181Z,22.89
2023-04-03T05:10:43.174Z,22.88
2023-04-03T05:13:11.458Z,22.88
2023-04-03T05:15:39.612Z,22.88
2023-04-03T05:18:07.758Z,22.88
2023-04-03T05:20:35.842Z,22.88
2023-04-03T05:23:03.479Z,22.88
2023-04-03T05:25:32.054Z,22.87
2023-04-03T05:27:59.959Z,22.86
2023-04-03T05:30:27.833Z,22.86
2023-04-03T05:32:55.790Z,22.86
2023-04-03T05:35:23.864Z,22.87
2023-04-03T05:37:51.887Z,22.88
2023-04-03T05:40:19.854Z,22.87
2023-04-03T05:42:47.741Z,22.87
2023-04-03T05:45:15.637Z,22.86
2023-04-03T05:47:43.445Z,22.86
2023-04-03T05:50:11.342Z,22.85
2023-04-03T05:52:39.867Z,22.86
2023-04-03T05:55:08.586Z,22.85
2023-04-03T05:57:36.203Z,22.86
2023-04-03T06:00:09.250Z,22.87
2023-04-03T06:02:42.805Z,22.87
2023-04-03T06:05:13.454Z,22.86
2023-04-03T06:07:41.642Z,22.86
2023-04-03T06:10:12.837Z,22.92
2023-04-03T06:12:40.293Z,22.88
2023-04-03T06:15:09.406Z,22.86
2023-04-03T06:17:38.388Z,22.84
2023-04-03T06:20:07.210Z,22.84
2023-04-03T06:22:34.948Z,22.83
2023-04-03T06:25:02.781Z,22.84
2023-04-03T06:27:30.338Z,22.84
2023-04-03T06:29:57.822Z,22.85
2023-04-03T06:32:26.103Z,22.84
2023-04-03T06:34:54.432Z,22.83
2023-04-03T06:37:22.826Z,22.83
2023-04-03T06:39:50.583Z,22.84
2023-04-03T06:42:18.048Z,22.84
2023-04-03T06:44:46.084Z,22.83
2023-04-03T06:47:14.642Z,22.82
2023-04-03T06:49:42.424Z,22.84
2023-04-03T06:52:10.011Z,22.84
2023-04-03T06:54:37.747Z,22.84
2023-04-03T06:57:05.266Z,22.85
2023-04-03T06:59:32.842Z,22.84
2023-04-03T07:02:00.931Z,22.84
2023-04-03T07:04:28.449Z,22.84
2023-04-03T07:06:56.068Z,22.84
2023-04-03T07:09:24.017Z,22.84
2023-04-03T07:11:51.480Z,22.85
2023-04-03T07:14:19.247Z,22.85
2023-04-03T07:16:46.955Z,22.78
2023-04-03T07:19:14.473Z,22.71
2023-04-03T07:21:42.969Z,22.71
2023-04-03T07:24:13.105Z,22.70
2023-04-03T07:26:44.010Z,22.71
2023-04-03T07:29:13.329Z,22.72
2023-04-03T07:31:42.592Z,22.74
2023-04-03T07:34:10.162Z,22.75
2023-04-03T07:36:38.527Z,22.76
2023-04-03T07:39:07.310Z,22.75
2023-04-03T07:41:34.989Z,22.76
2023-04-03T07:44:03.606Z,22.77
2023-04-03T07:46:31.129Z,22.80
2023-04-03T07:48:58.932Z,22.80
2023-04-03T07:51:27.794Z,22.81
2023-04-03T07:53:55.356Z,22.83
2023-04-03T07:56:23.831Z,22.83
2023-04-03T07:58:51.739Z,22.85
2023-04-03T08:01:19.194Z,22.86
2023-04-03T08:03:46.996Z,22.87
2023-04-03T08:06:16.945Z,22.88
2023-04-03T08:08:46.860Z,22.90
2023-04-03T08:11:14.664Z,22.91
2023-04-03T08:13:43.902Z,22.91
2023-04-03T08:16:13.514Z,22.93
2023-04-03T08:18:41.531Z,22.95
2023-04-03T08:21:10.115Z,22.96
2023-04-03T08:23:38.063Z,22.97
2023-04-03T08:26:13.702Z,22.96
2023-04-03T08:28:41.606Z,23.00
2023-04-03T08:31:12.777Z,22.99
2023-04-03T08:33:40.655Z,23.00
2023-04-03T08:36:09.288Z,23.01
2023-04-03T08:38:38.277Z,23.02
2023-04-03T08:41:12.540Z,23.03
2023-04-03T08:44:05.144Z,23.01
2023-04-03T08:46:53.936Z,23.02
2023-04-03T08:49:27.464Z,23.00
2023-04-03T08:51:57.881Z,22.99
2023-04-03T08:54:31.615Z,22.97
2023-04-03T08:57:01.154Z,22.96
2023-04-03T08:59:34.955Z,22.95
2023-04-03T09:02:06.382Z,22.94
2023-04-03T09:04:34.777Z,22.93
2023-04-03T09:07:09.956Z,22.94
2023-04-03T09:09:44.809Z,22.97
2023-04-03T09:12:20.903Z,22.96
2023-04-03T09:15:04.255Z,22.99
2023-04-03T09:17:35.417Z,23.00
2023-04-03T09:20:20.360Z,23.02
2023-04-03T09:22:52.155Z,23.05
2023-04-03T09:25:28.695Z,23.06
2023-04-03T09:27:57.032Z,23.09
2023-04-03T09:30:25.842Z,23.12
2023-04-03T09:32:54.716Z,23.11
2023-04-03T09:35:44.931Z,23.14
2023-04-03T09:38:18.550Z,23.17
2023-04-03T09:40:50.674Z,23.19
2023-04-03T09:43:18.394Z,23.21
2023-04-03T09:45:46.726Z,23.23
2023-04-03T09:49:08.885Z,23.25
2023-04-03T09:51:50.495Z,23.29
2023-04-03T09:55:08.656Z,23.29
2023-04-03T09:58:03.564Z,23.32
2023-04-03T10:00:59.584Z,23.32
2023-04-03T10:03:37.560Z,23.33
2023-04-03T10:06:05.678Z,23.33
2023-04-03T10:08:34.571Z,23.33
2023-04-03T10:11:11.046Z,23.35
2023-04-03T10:13:51.362Z,23.35
2023-04-03T10:16:21.678Z,23.37
2023-04-03T10:19:00.337Z,23.36
2023-04-03T10:21:32.153Z,23.38
2023-04-03T10:24:16.153Z,23.38
2023-04-03T10:26:52.267Z,23.39
2023-04-03T10:29:48.145Z,23.39
2023-04-03T10:32:24.727Z,23.39
2023-04-03T10:35:25.144Z,23.40
2023-04-03T10:38:03.090Z,23.41
2023-04-03T10:40:35.378Z,23.42
2023-04-03T10:43:34.519Z,23.39
2023-04-03T10:46:08.498Z,23.41
2023-04-03T10:48:56.187Z,23.41
2023-04-03T10:52:10.242Z,23.40
2023-04-03T10:55:29.775Z,23.41
2023-04-03T10:58:41.429Z,23.40
2023-04-03T11:01:33.788Z,23.40
2023-04-03T11:04:02.067Z,23.39
2023-04-03T11:07:01.190Z,23.38
2023-04-03T11:09:38.948Z,23.41
2023-04-03T11:12:20.156Z,23.40
2023-04-03T11:14:48.269Z,23.38
2023-04-03T11:17:24.972Z,23.39
2023-04-03T11:19:55.682Z,23.39
2023-04-03T11:22:42.893Z,23.37
2023-04-03T11:25:16.374Z,23.39
2023-04-03T11:27:47.064Z,23.38
2023-04-03T11:30:19.597Z,23.36
2023-04-03T11:33:13.904Z,23.37
2023-04-03T11:35:46.960Z,23.39
2023-04-03T11:38:37.356Z,23.39
2023-04-03T11:41:06.126Z,23.41
2023-04-03T11:43:34.494Z,23.39
2023-04-03T11:46:05.641Z,23.38
2023-04-03T11:48:36.399Z,23.40
2023-04-03T11:51:21.691Z,23.39
2023-04-03T11:53:49.678Z,23.40
2023-04-03T11:56:29.076Z,23.39
2023-04-03T11:59:19.415Z,23.40
2023-04-03T12:01:51.129Z,23.42
2023-04-03T12:04:20.436Z,23.41
2023-04-03T12:06:48.109Z,23.40
2023-04-03T12:09:29.067Z,23.41
2023-04-03T12:11:57.784Z,23.41
2023-04-03T12:14:28.464Z,23.42
2023-04-03T12:16:58.682Z,23.41
2023-04-03T12:19:44.460Z,23.40
2023-04-03T12:22:14.254Z,23.41
2023-04-03T12:24:43.786Z,23.40
2023-04-03T12:27:49.814Z,23.40
2023-04-03T12:30:24.014Z,23.41
2023-04-03T12:33:19.968Z,23.37
2023-04-03T12:35:56.971Z,23.37
2023-04-03T12:39:09.709Z,23.36
2023-04-03T12:42:21.673Z,23.34
2023-04-03T12:45:11.618Z,23.33
2023-04-03T12:47:40.977Z,23.27
2023-04-03T12:50:25.032Z,23.29
2023-04-03T12:53:14.229Z,23.32
2023-04-03T12:55:41.809Z,23.30
2023-04-03T12:58:23.598Z,23.33
2023-04-03T13:01:24.512Z,23.33
2023-04-03T13:03:56.927Z,23.36
2023-04-03T13:06:28.457Z,23.36
2023-04-03T13:09:05.225Z,23.36
2023-04-03T13:11:36.031Z,23.37
2023-04-03T13:14:06.884Z,23.40
2023-04-03T13:16:34.809Z,23.41
2023-04-03T13:19:02.496Z,23.43
2023-04-03T13:21:31.911Z,23.46
2023-04-03T13:24:14.057Z,23.46
2023-04-03T13:26:42.925Z,23.46
2023-04-03T13:29:30.020Z,23.45
2023-04-03T13:31:59.195Z,23.42
2023-04-03T13:34:28.808Z,23.40
2023-04-03T13:36:58.185Z,23.38
2023-04-03T13:39:26.991Z,23.36
2023-04-03T13:41:56.171Z,23.35
2023-04-03T13:44:23.457Z,23.33
2023-04-03T13:46:52.371Z,23.33
2023-04-03T13:49:32.093Z,23.29
2023-04-03T13:52:07.143Z,23.26
2023-04-03T13:54:40.344Z,23.24
2023-04-03T13:57:16.034Z,23.23
2023-04-03T13:59:44.204Z,23.22
2023-04-03T14:02:15.235Z,23.21
2023-04-03T14:04:46.063Z,23.19
2023-04-03T14:07:13.880Z,23.16
2023-04-03T14:09:41.528Z,23.17
2023-04-03T14:12:32.915Z,23.15
2023-04-03T14:15:12.141Z,23.14
2023-04-03T14:17:39.871Z,23.13
2023-04-03T14:20:08.092Z,23.13
2023-04-03T14:22:35.847Z,23.11
2023-04-03T14:25:04.184Z,23.09
2023-04-03T14:27:36.238Z,23.09
2023-04-03T14:30:05.105Z,23.07
2023-04-03T14:32:32.717Z,23.06
2023-04-03T14:35:00.528Z,23.05
2023-04-03T14:37:30.281Z,23.05
2023-04-03T14:39:58.396Z,23.03
2023-04-03T14:42:29.090Z,23.04
2023-04-03T14:44:56.810Z,23.01
2023-04-03T14:47:31.180Z,23.01
2023-04-03T14:50:03.580Z,23.01
2023-04-03T14:52:32.789Z,22.99
2023-04-03T14:55:01.440Z,22.97
2023-04-03T14:57:29.545Z,22.96
2023-04-03T14:59:57.353Z,22.95
2023-04-03T15:02:32.081Z,22.93
2023-04-03T15:05:00.279Z,22.92
2023-04-03T15:07:29.262Z,22.91
2023-04-03T15:09:59.440Z,22.91
2023-04-03T15:12:26.745Z,22.90
2023-04-03T15:15:01.062Z,22.98
2023-04-03T15:17:30.448Z,22.92
2023-04-03T15:19:58.213Z,22.90
2023-04-03T15:22:25.713Z,22.90
2023-04-03T15:24:53.225Z,22.89
2023-04-03T15:27:20.946Z,22.89
2023-04-03T15:29:48.476Z,22.91
2023-04-03T15:32:15.986Z,22.95
2023-04-03T15:34:43.748Z,22.96
2023-04-03T15:37:11.263Z,22.95
2023-04-03T15:39:38.689Z,22.96
2023-04-03T15:42:09.316Z,22.96
2023-04-03T15:44:36.780Z,22.96
2023-04-03T15:47:04.309Z,22.97
2023-04-03T15:49:33.642Z,22.97
2023-04-03T15:52:01.279Z,22.98
2023-04-03T15:54:30.538Z,23.04
2023-04-03T15:56:58.372Z,23.07
2023-04-03T15:59:25.939Z,23.11
2023-04-03T16:01:53.480Z,23.20
2023-04-03T16:04:21.916Z,23.32
2023-04-03T16:06:50.061Z,23.45
2023-04-03T16:09:17.605Z,23.57
2023-04-03T16:11:45.392Z,23.70
2023-04-03T16:14:12.977Z,23.82
2023-04-03T16:16:40.575Z,23.93
2023-04-03T16:19:08.329Z,24.06
2023-04-03T16:21:35.884Z,24.16
2023-04-03T16:24:03.656Z,24.27
2023-04-03T16:26:31.465Z,24.37
2023-04-03T16:28:59.030Z,24.47
2023-04-03T16:31:26.573Z,24.56
2023-04-03T16:33:54.326Z,24.63
2023-04-03T16:36:21.896Z,24.67
2023-04-03T16:38:49.514Z,24.77
2023-04-03T16:41:18.116Z,24.81
2023-04-03T16:43:45.758Z,24.83
2023-04-03T16:46:16.158Z,24.84
2023-04-03T16:48:44.000Z,24.87
2023-04-03T16:51:14.198Z,24.87
2023-04-03T16:53:42.913Z,24.85
2023-04-03T16:56:11.050Z,24.85
2023-04-03T16:58:38.843Z,24.84
2023-04-03T17:01:14.337Z,24.82
2023-04-03T17:03:42.444Z,24.82
2023-04-03T17:06:15.672Z,24.79
2023-04-03T17:08:44.328Z,24.77
2023-04-03T17:11:11.914Z,24.76
2023-04-03T17:13:39.568Z,24.72
2023-04-03T17:16:09.653Z,24.69
2023-04-03T17:18:37.804Z,24.67
2023-04-03T17:21:06.461Z,24.64
2023-04-03T17:23:36.959Z,24.61
2023-04-03T17:26:04.743Z,24.59
2023-04-03T17:28:32.417Z,24.57
2023-04-03T17:31:01.230Z,24.54
2023-04-03T17:33:31.193Z,24.51
2023-04-03T17:35:59.404Z,24.48
2023-04-03T17:38:27.264Z,24.55
2023-04-03T17:40:58.821Z,24.47
2023-04-03T17:43:29.410Z,24.42
2023-04-03T17:46:05.101Z,24.39
2023-04-03T17:48:33.468Z,24.37
2023-04-03T17:51:11.757Z,24.36
2023-04-03T17:53:41.316Z,24.33
2023-04-03T17:56:10.474Z,24.33
2023-04-03T17:58:38.470Z,24.30
2023-04-03T18:01:14.719Z,24.28
2023-04-03T18:03:43.801Z,24.26
2023-04-03T18:06:20.920Z,24.25
2023-04-03T18:08:51.670Z,24.23
2023-04-03T18:11:21.482Z,24.22
2023-04-03T18:13:51.846Z,24.28
2023-04-03T18:16:20.063Z,24.20
2023-04-03T18:18:50.700Z,24.15
2023-04-03T18:21:23.542Z,24.14
2023-04-03T18:23:55.824Z,24.12
2023-04-03T18:26:27.274Z,24.10
2023-04-03T18:28:59.397Z,24.08
2023-04-03T18:31:28.867Z,24.06
2023-04-03T18:33:59.371Z,24.05
2023-04-03T18:36:29.845Z,24.04
2023-04-03T18:38:58.602Z,24.02
2023-04-03T18:41:29.223Z,24.00
2023-04-03T18:43:58.622Z,23.98
2023-04-03T18:46:26.992Z,23.98
2023-04-03T18:48:55.599Z,23.98
2023-04-03T18:51:27.386Z,23.96
2023-04-03T18:53:55.994Z,23.95
2023-04-03T18:56:27.738Z,23.95
2023-04-03T18:58:57.264Z,23.94
2023-04-03T19:01:26.614Z,23.93
2023-04-03T19:03:55.513Z,23.92
2023-04-03T19:06:25.027Z,23.92
2023-04-03T19:08:53.827Z,23.90
2023-04-03T19:11:23.519Z,23.90
2023-04-03T19:14:10.434Z,23.87
2023-04-03T19:16:41.588Z,23.88
2023-04-03T19:19:10.001Z,23.87
2023-04-03T19:21:41.783Z,23.85
2023-04-03T19:24:11.450Z,23.85
2023-04-03T19:26:41.359Z,23.84
2023-04-03T19:29:10.198Z,23.82
2023-04-03T19:31:41.054Z,23.83
2023-04-03T19:34:09.643Z,23.82
2023-04-03T19:36:40.223Z,23.80
2023-04-03T19:39:13.368Z,23.78
2023-04-03T19:41:45.379Z,23.77
2023-04-03T19:44:15.162Z,23.77
2023-04-03T19:46:50.973Z,23.76
2023-04-03T19:49:21.031Z,23.75
2023-04-03T19:51:49.466Z,23.73
2023-04-03T19:54:18.919Z,23.73
2023-04-03T19:56:47.895Z,23.71
2023-04-03T19:59:17.014Z,23.70
2023-04-03T20:01:46.582Z,23.68
2023-04-03T20:04:21.570Z,23.67
2023-04-03T20:06:51.092Z,23.65
2023-04-03T20:09:21.779Z,23.63
2023-04-03T20:11:50.950Z,23.64
2023-04-03T20:14:20.127Z,23.63
2023-04-03T20:16:47.838Z,23.62
2023-04-03T20:19:16.854Z,23.61
2023-04-03T20:21:48.189Z,23.60
2023-04-03T20:24:17.248Z,23.59
2023-04-03T20:26:47.210Z,23.59
2023-04-03T20:29:16.616Z,23.57
2023-04-03T20:31:44.399Z,23.54
2023-04-03T20:34:13.553Z,23.55
2023-04-03T20:36:41.191Z,23.54
2023-04-03T20:39:08.742Z,23.53
2023-04-03T20:41:37.923Z,23.52
2023-04-03T20:44:05.861Z,23.49
2023-04-03T20:46:49.194Z,23.48
2023-04-03T20:49:21.192Z,23.49
2023-04-03T20:51:51.215Z,23.48
2023-04-03T20:54:19.187Z,23.46
2023-04-03T20:56:49.729Z,23.46
2023-04-03T20:59:17.721Z,23.47
2023-04-03T21:01:46.920Z,23.45
2023-04-03T21:04:26.603Z,23.42
2023-04-03T21:07:31.792Z,23.45
2023-04-03T21:10:37.436Z,23.45
2023-04-03T21:13:42.795Z,23.45
2023-04-03T21:16:10.395Z,23.41
2023-04-03T21:19:00.890Z,23.40
2023-04-03T21:21:28.881Z,23.40
2023-04-03T21:23:56.430Z,23.40
2023-04-03T21:26:26.028Z,23.42
2023-04-03T21:28:53.856Z,23.47
2023-04-03T21:31:21.982Z,23.48
2023-04-03T21:33:50.168Z,23.50
2023-04-03T21:36:17.961Z,23.52
2023-04-03T21:38:46.040Z,23.54
2023-04-03T21:41:13.528Z,23.57
2023-04-03T21:43:41.470Z,23.58
2023-04-03T21:46:09.032Z,23.60
2023-04-03T21:48:36.805Z,23.62
2023-04-03T21:51:04.991Z,23.63
2023-04-03T21:53:32.458Z,23.64
2023-04-03T21:56:03.175Z,23.67
2023-04-03T21:58:32.081Z,23.66
2023-04-03T22:01:13.385Z,23.67
2023-04-03T22:03:41.827Z,23.70
2023-04-03T22:06:09.706Z,23.71
2023-04-03T22:08:37.372Z,23.68
2023-04-03T22:11:06.688Z,23.70
2023-04-03T22:13:34.396Z,23.69
2023-04-03T22:16:02.536Z,23.67
2023-04-03T22:18:30.486Z,23.67
2023-04-03T22:20:58.073Z,23.66
2023-04-03T22:23:26.170Z,23.66
2023-04-03T22:26:07.455Z,23.66
2023-04-03T22:28:37.441Z,23.65
2023-04-03T22:31:07.639Z,23.64
2023-04-03T22:33:38.298Z,23.64
2023-04-03T22:36:06.713Z,23.63
2023-04-03T22:38:35.067Z,23.62
2023-04-03T22:41:03.868Z,23.60
2023-04-03T22:43:32.657Z,23.59
2023-04-03T22:46:01.224Z,23.61
2023-04-03T22:48:28.772Z,23.59
2023-04-03T22:50:56.548Z,23.57
2023-04-03T22:53:24.068Z,23.57
2023-04-03T22:55:57.662Z,23.55
2023-04-03T22:58:28.913Z,23.54
2023-04-03T23:01:05.031Z,23.53
2023-04-03T23:03:33.495Z,23.52
2023-04-03T23:06:04.117Z,23.51
2023-04-03T23:08:32.627Z,23.50
2023-04-03T23:11:00.654Z,23.50
2023-04-03T23:13:28.162Z,23.48
2023-04-03T23:15:56.492Z,23.48
2023-04-03T23:18:24.717Z,23.45
2023-04-03T23:20:52.268Z,23.45
2023-04-03T23:23:19.851Z,23.44
2023-04-03T23:25:52.357Z,23.43
2023-04-03T23:28:38.272Z,23.41
2023-04-03T23:31:10.298Z,23.39
2023-04-03T23:33:43.827Z,23.38
2023-04-03T23:36:13.175Z,23.37
2023-04-03T23:38:41.193Z,23.35
2023-04-03T23:41:08.665Z,23.34
2023-04-03T23:43:37.095Z,23.34
2023-04-03T23:46:04.548Z,23.33
2023-04-03T23:48:32.002Z,23.33
2023-04-03T23:50:59.746Z,23.32
2023-04-03T23:53:27.284Z,23.30
2023-04-03T23:55:54.809Z,23.28
2023-04-03T23:58:22.741Z,23.28
